Silver Peak Trail, Santa Catalina Island Weather observations

Data are for 10 minute period ending at time listed.
 Day   Time   Solar   Ave.   Ave.  Ave.  Vector    Max.   Stn.    Total
  of    of     Rad.   Air    Rel.  Wind   Wind     Wind   Baro.  Precip.
Year   Day            Temp.  Hum.  Speed  Dir.     Gust   Pres.         
2014   (PST)   W/m2    F      %     mph   deg.      mph    mb.     in.  
------------------------------------------------------------------------
 353   15:50  194.0    53   91.5     5    356.9     6.6    999.0   0.00  
 353   16:00  151.0    53   91.3     4    346.9     5.4    999.0   0.00  
 353   16:10  179.0    53   88.6     4    340.7     6.0    999.0   0.00  
 353   16:20  131.0    54   83.8     4    333.3     6.0    999.0   0.00  
 353   16:30   67.0    53   83.6     3    342.4     5.4    999.0   0.00  
 353   16:40   26.0    54   83.3     2    278.7     4.2    999.0   0.00  
 353   16:50    9.0    54   84.9     3    263.9     4.8    999.0   0.00  
 353   17:00    3.0    53   86.3     4    265.2     6.6    999.0   0.00  
 353   17:10    1.0    53   83.2     5    260.2     9.0    999.0   0.00  
 353   17:20    0.0    53   80.4     6    277.2    11.3    999.0   0.00  
 353   17:30    0.0    53   79.9     9    273.9    14.3    999.0   0.00  
 353   17:40    0.0    52   81.5     8    284.3    13.1    999.0   0.00  
 353   17:50    0.0    52   85.0    10    277.2    13.7    999.0   0.00  
 353   18:00    0.0    52   88.4     9    269.8    13.7    999.0   0.00  
 353   18:10    0.0    52   90.3     8    240.2    12.5    999.0   0.00  
 353   18:20    0.0    51   92.0     8    226.6    12.5    999.0   0.00  
 353   18:30    0.0    51   93.0     8    228.4    11.9    999.0   0.00  
 353   18:40    0.0    51   93.6     8    243.0    12.5    999.0   0.00  
 353   18:50    0.0    51   93.9     9    260.7    13.7    999.0   0.00  
 353   19:00    0.0    51   94.0    10    277.6    16.7    999.0   0.00  
 353   19:10    0.0    51   94.0    12    282.2    17.3    999.0   0.00  
 353   19:20    0.0    51   93.8    11    290.3    15.5    999.0   0.00  
 353   19:30    0.0    51   93.6    10    286.2    14.3    999.0   0.00  
 353   19:40    0.0    51   93.6    10    285.3    14.3    999.0   0.00  
 353   19:50    0.0    51   93.7    11    288.8    14.3    999.0   0.00  
 353   20:00    0.0    51   93.2     8    284.1    11.3    999.0   0.00  
 353   20:10    0.0    51   91.1     6    288.6    10.2    999.0   0.00  
 353   20:20    0.0    51   89.0     5    253.2     9.0    999.0   0.00  
 353   20:30    0.0    51   89.0     6    281.2     9.0    999.0   0.00  
 353   20:40    0.0    51   88.0     8    293.8    11.3    999.0   0.00  
 353   20:50    0.0    51   88.6     8    291.3    11.3    999.0   0.00  
 353   21:00    0.0    51   90.7     8    280.3    11.9    999.0   0.00  
 353   21:10    0.0    51   92.6     8    277.5    12.5    999.0   0.00  
 353   21:20    0.0    51   93.3     6    296.7     9.6    999.0   0.00  
 353   21:30    0.0    52   89.9     7    298.0    11.9    999.0   0.00  
 353   21:40    0.0    51   92.3    10    281.8    15.5    999.0   0.00  
 353   21:50    0.0    51   93.8    10    286.4    13.7    999.0   0.00  
 353   22:00    0.0    51   94.3     8    279.4    13.7    999.0   0.00  
 353   22:10    0.0    51   94.6     6    280.0    10.8    999.0   0.00  
 353   22:20    0.0    51   94.8     6    286.4    10.8    999.0   0.00  
 353   22:30    0.0    51   94.9     7    276.1    10.2    999.0   0.00  
 353   22:40    0.0    51   95.1     8    299.0    10.8    999.0   0.00  
 353   22:50    0.0    51   95.2     8    308.4    10.2    999.0   0.00  
 353   23:00    0.0    51   95.3     9    318.2    11.9    999.0   0.00  
 353   23:10    0.0    51   95.4     8    312.1    10.8    999.0   0.00  
 353   23:20    0.0    51   95.4     9    310.3    11.3    999.0   0.00  
 353   23:30    0.0    51   95.4     9    309.0    11.9    999.0   0.00  
 353   23:40    0.0    51   95.5     9    303.1    11.9    999.0   0.00  
 353   23:50    0.0    51   95.6     8    299.5    10.8    999.0   0.00  
 354    0:00    0.0    51   95.7    10    312.7    13.7    999.0   0.00  
 354    0:10    0.0    51   95.8     9    315.2    13.7    999.0   0.00  
 354    0:20    0.0    51   95.9     9    304.3    13.1    999.0   0.00  
 354    0:30    0.0    51   95.9     8    301.7    11.3    999.0   0.00  
 354    0:40    0.0    51   95.9     9    309.7    14.9    999.0   0.00  
 354    0:50    0.0    51   95.8     8    306.3    13.1    999.0   0.00  
 354    1:00    0.0    51   95.9     9    307.0    12.5    999.0   0.00  
 354    1:10    0.0    51   95.9     6    294.4    12.5    999.0   0.00  
 354    1:20    0.0    51   96.0     6    299.5    10.2    999.0   0.00  
 354    1:30    0.0    51   96.0     5    296.4     8.4    999.0   0.00  
 354    1:40    0.0    51   96.1     6    298.8     9.0    999.0   0.00  
 354    1:50    0.0    51   96.1     6    297.7     7.8    999.0   0.00  
 354    2:00    0.0    51   96.1     6    287.1     9.6    999.0   0.00  
 354    2:10    0.0    51   96.1     7    288.0     9.6    999.0   0.00  
 354    2:20    0.0    51   96.2     7    253.7    12.5    999.0   0.00  
 354    2:30    0.0    51   96.3     8    255.5    10.8    999.0   0.00  
 354    2:40    0.0    51   96.3     8    269.2    12.5    999.0   0.00  
 354    2:50    0.0    51   96.3     8    266.7    11.9    999.0   0.00  
 354    3:00    0.0    51   96.3     8    267.6    13.1    999.0   0.00  
 354    3:10    0.0    51   96.3     8    268.0    12.5    999.0   0.00  
 354    3:20    0.0    51   96.3     9    280.3    13.7    999.0   0.00  
 354    3:30    0.0    51   96.3     7    272.9    14.3    999.0   0.00  
 354    3:40    0.0    51   96.3     8    280.3    12.5    999.0   0.00  
 354    3:50    0.0    51   96.2     9    290.4    13.1    999.0   0.00  
 354    4:00    0.0    51   96.1     9    272.5    14.3    999.0   0.00  
 354    4:10    0.0    51   96.1     8    274.9    11.9    999.0   0.00  
 354    4:20    0.0    51   96.0     9    288.7    13.7    999.0   0.00  
 354    4:30    0.0    51   95.8     7    291.3    11.9    999.0   0.00  
 354    4:40    0.0    51   95.7     9    281.9    13.1    999.0   0.00  
 354    4:50    0.0    51   95.6     8    280.5    12.5    999.0   0.00  
 354    5:00    0.0    51   95.5    10    290.7    15.5    999.0   0.00  
 354    5:10    0.0    52   95.5     8    284.6    12.5    999.0   0.00  
 354    5:20    0.0    52   95.3    10    286.4    17.9    999.0   0.00  
 354    5:30    0.0    52   95.2     8    276.8    14.3    999.0   0.00  
 354    5:40    0.0    52   95.2     8    293.2    12.5    999.0   0.00  
 354    5:50    0.0    52   95.3     9    297.9    12.5    999.0   0.00  
 354    6:00    0.0    52   95.5     8    291.3    11.9    999.0   0.00  
 354    6:10    0.0    52   95.8     7    278.0    11.9    999.0   0.00  
 354    6:20    0.0    52   96.0     6    283.4    11.3    999.0   0.00  
 354    6:30    0.0    52   96.2    10    309.9    13.7    999.0   0.00  
 354    6:40    0.0    52   96.3     8    302.3    13.7    999.0   0.00  
 354    6:50    3.0    52   96.3     8    298.1    12.5    999.0   0.00  
 354    7:00    3.0    52   96.4    10    292.3    16.1    999.0   0.00  
 354    7:10    5.0    52   96.5     9    286.1    14.3    999.0   0.00  
 354    7:20   11.0    52   96.6     8    274.8    13.7    999.0   0.00  
 354    7:30   17.0    52   96.6     9    304.1    14.9    999.0   0.00  
 354    7:40   23.0    52   96.7     9    310.4    15.5    999.0   0.00  
 354    7:50   36.0    52   96.7     9    298.2    16.1    999.0   0.00  
 354    8:00   60.0    52   96.7    10    308.5    16.1    999.0   0.00  
 354    8:10   90.0    53   96.7     8    313.2    12.5    999.0   0.00  
 354    8:20   76.0    52   96.7     8    300.8    14.9    999.0   0.00  
 354    8:30   82.0    52   96.7     8    277.2    14.3    999.0   0.00  
 354    8:40  105.0    52   96.6     8    288.3    12.5    999.0   0.00  
 354    8:50  105.0    53   96.5     6    276.6    11.9    999.0   0.00  
 354    9:00  155.0    53   96.3     7    278.2    11.9    999.0   0.00  
 354    9:10  332.0    54   95.6     8    304.1    11.9    999.0   0.00  
 354    9:20  373.0    54   94.1     8    316.4    15.5    999.0   0.00  
 354    9:30  230.0    54   92.7     7    329.9    11.3    999.0   0.00  
 354    9:40  158.0    54   92.6     9    341.0    13.1    999.0   0.00  
 354    9:50  222.0    54   93.7     7    328.1    12.5    999.0   0.00  
 354   10:00  302.0    55   93.9     6    335.8    10.8    999.0   0.00  
 354   10:10  300.0    55   93.9     5    348.7     9.6    999.0   0.00  
 354   10:20  197.0    55   93.9     4    327.7     7.2    999.0   0.00  
 354   10:30  171.0    55   94.1     4      4.8     7.8    999.0   0.00  
 354   10:40  138.0    55   94.1     3    355.2     7.2    999.0   0.00  
 354   10:50  160.0    55   94.4     4    339.0     7.2    999.0   0.00  
 354   11:00   87.0    54   94.6     5    353.7     9.0    999.0   0.00  
 354   11:10  133.0    54   95.3     4    346.6     7.2    999.0   0.00  
 354   11:20  190.0    54   95.6     5    330.5     8.4    999.0   0.00  
 354   11:30  166.0    55   95.6     5    344.1     9.6    999.0   0.00  
 354   11:40  249.0    55   95.6     4    321.6     6.0    999.0   0.00  
 354   11:50  159.0    56   94.9     3    318.2     6.6    999.0   0.00  
 354   12:00  218.0    56   94.3     2    291.5     7.2    999.0   0.00  
 354   12:10  198.0    56   93.6     4    305.9     7.2    999.0   0.00  
 354   12:20  196.0    56   93.2     5    315.7    10.8    999.0   0.00  
 354   12:30  131.0    56   93.6     4    300.5     7.8    999.0   0.00  
 354   12:40  130.0    56   94.3     6    278.7    10.8    999.0   0.00  
 354   12:50  111.0    55   94.9     6    312.2     9.6    999.0   0.00  
 354   13:00   85.0    55   95.5     4    286.8     8.4    999.0   0.00  
 354   13:10   89.0    55   95.8     4    265.2    10.8    999.0   0.00  
 354   13:20   95.0    55   96.1     7    264.3    13.1    999.0   0.00  
 354   13:30  156.0    55   96.3     7    260.1    13.7    999.0   0.00  
 354   13:40  120.0    55   96.4     4    262.4     9.0    999.0   0.00  
 354   13:50  101.0    55   96.6     5    247.5     9.6    999.0   0.00  
 354   14:00  133.0    55   96.6     7    236.3    13.7    999.0   0.00  
 354   14:10  148.0    55   96.7     6    258.5    11.3    999.0   0.00  
 354   14:20  175.0    55   96.7     7    252.3    13.1    999.0   0.00  
 354   14:30  106.0    55   96.8     7    268.1    13.7    999.0   0.00  
 354   14:40  101.0    55   96.8     8    243.4    14.3    999.0   0.00  
 354   14:50   73.0    55   96.8     8    263.3    14.9    999.0   0.00  
 354   15:00  100.0    55   96.9     6    251.5    13.1    999.0   0.00  
 354   15:10  101.0    55   96.9     7    262.4    13.7    999.0   0.00  
 354   15:20   61.0    55   96.9     6    301.0    11.3    999.0   0.00  
 354   15:30   38.0    54   97.0     6    277.8    11.9    999.0   0.00  
 354   15:40   29.0    54   97.0     8    300.7    14.9    999.0   0.00  

Return to Silver Peak Trail graphs page.


Western Regional Climate Center,wrcc@dri.edu